Friday, November 24, 2017, 12:39 AM EST
Back to Local

KCDW, Caldwell Essex County Airport

Location: Fairfield, NJ, United States Lat: 40.883
Local Time: 12:39 AM EST ( 5:39 GMT) Lon: -74.283
Time Zone: US/Eastern Elev: 173 ft

Show me the last for .
Show Coded

Time T Td Feel RH Dir Speed Gust Alt SLP Vis Weather Sky Remarks
2017-11-23 23:53 28 22 - 77 - Calm - 30.05 30.07 10 CLR 24-hr Min Temp (12am): 27.0°F
24-hr Max Temp (12am): 44.1°F
2017-11-23 22:53 28 22 - 77 - Calm - 30.05 30.07 10 CLR None
2017-11-23 21:53 30 23 - 74 - Calm - 30.04 30.06 10 CLR None
2017-11-23 20:53 31 23 - 72 - Calm - 30.03 30.05 10 CLR None
2017-11-23 19:53 31 23 - 72 - Calm - 30.02 30.04 10 CLR None
2017-11-23 18:53 33 22 - 63 - Calm - 30.03 30.05 10 CLR 6-hr Min Temp (7pm): 33.1°F
6-hr Max Temp (7pm): 44.1°F
2017-11-23 17:53 35 20 - 53 - Calm - 30.03 30.05 10 CLR None
2017-11-23 16:53 39 19 - 44 - Calm - 30.02 30.04 10 CLR None
2017-11-23 15:53 42 18 40 37 Variable 3 - 30.02 30.03 10 CLR None
2017-11-23 14:53 43 18 39 36 320° 6 - 30.02 30.04 10 CLR None
2017-11-23 13:53 42 19 37 39 310° 8 - 30.03 30.05 10 CLR None
2017-11-23 12:53 41 18 - 38 - Calm - 30.05 30.07 10 CLR 6-hr Min Temp (1pm): 27.0°F
6-hr Max Temp (1pm): 42.1°F
2017-11-23 11:53 39 18 34 42 280° 7 - 30.07 30.09 10 CLR None
2017-11-23 10:53 37 18 32 45 280° 7 - 30.10 30.12 10 CLR None
2017-11-23 09:53 36 19 31 49 Variable 6 - 30.13 30.15 10 CLR None
2017-11-23 08:53 33 19 30 55 Variable 3 - 30.13 30.15 10 CLR None
2017-11-23 07:53 30 19 26 63 310° 3 - 30.13 30.15 10 CLR None
2017-11-23 06:53 28 18 - 65 - Calm - 30.12 30.14 10 CLR 6-hr Precip Total (7am): 0.00"
24-hr Precip Total (7am): 0.03"
6-hr Min Temp (7am): 28.0°F
6-hr Max Temp (7am): 30.9°F
2017-11-23 05:53 30 17 25 58 320° 5 - 30.10 30.12 10 CLR None
2017-11-23 04:53 31 18 - 58 - Calm - 30.09 30.11 10 CLR None
2017-11-23 03:53 31 18 26 58 330° 5 - 30.09 30.11 10 CLR 6-hr Precip Total (4am): 0.00"
2017-11-23 02:53 30 19 - 63 - Calm - 30.12 30.14 10 CLR 1-hr Precip Total: Trace
2017-11-23 01:53 31 19 27 60 290° 3 - 30.11 30.12 10 CLR None
2017-11-23 00:53 29 21 22 71 300° 7 - 30.10 30.11 10 CLR 6-hr Precip Total (1am): 0.00"
6-hr Min Temp (1am): 28.9°F
6-hr Max Temp (1am): 39.0°F

Support USWX by starting your Amazon purchase here.